Childress Municipal Airport
KCDS : now visible

Airfield :











YOU CAN JOIN US ON...

 
LOGIN :

Register | Disclaimer

   EN    FR    IT 

 









Legend :    VFR   Marginal VFR   IFR   Intensive IFR   Very Intensive IFR
Visi :
Ceiling :
>= 8 km
>= 3000ft
5 to 8 km
1000 to 3000 ft
1500m to 5 km
500 to 1000 ft
800 to 1500m
200 to 500 ft
< 800m
< 200 ft
Symbols :   Thunderstorms  Fog  Heavy snow  Heavy precipitations  Wind > 20 kt






- Airport Elevation : 1954 ft


KCDS - Childress Municipal

CURRENT METAR :
  • 300753Z AUTO 12003KT 10SM CLR 18/08 A3012 RMK AO2 SLP172 T01780078

EXPIRED METARs :
  • 300653Z AUTO 14011KT 10SM CLR 18/08 A3011 RMK AO2 SLP170 T01830078
  • 300553Z AUTO 14012KT 10SM CLR 19/08 A3012 RMK AO2 SLP172 T01940078 10306 20194 403390144 50003

TAF KCDS
Valid from the 30 at 06:00 until the 01 at 06:00 UTC


300520Z 3006/0106 14011KT P6SM FEW250
KZFW FIR / North America



MET'MAP, your aeronautical weather chart ! - Copyright ORBIFLY December 2007 - Disclaimer

ORBIFLY MET'MAP TEAM :

Programming & Development : Alexandra Zaïnal
Original concept : Baudouin d'Aumeries
Technical & hardware support : Manuel Goepfert
Assistance : Marc-Olivier Méhu




SOURCES & CREDITS :

   NOAA       Earth
Advisory